Aviation Digital Data Service (ADDS)

Output produced by TAFs form (2044 UTC 28 June 2017)
found at http://aviationweather.gov/adds/tafs/
 
KMAF 281724Z 2818/2918 17013G19KT P6SM FEW150 
     FM290900 18011KT P6SM SKC